Time;durP1;ratioP1;P1;durP2;ratioP2;P2;SDS_P1;SDS_P2;PMS_P1;PMS_P2;Temp;Humidity;BMP_temperature;BMP_pressure;BME280_temperature;BME280_humidity;BME280_pressure;Samples;Min_cycle;Max_cycle;Signal;HPM_P1;HPM_P2
2022/04/12 00:00:20;;;;;;;2.47;2.22;;;20.90;40.10;;;;;;5112696;27;20054;-58
2022/04/12 00:02:46;;;;;;;2.20;2.00;;;20.90;40.10;;;;;;5115133;27;20036;-58
2022/04/12 00:05:12;;;;;;;3.28;2.33;;;20.90;40.10;;;;;;5112563;27;20657;-57
2022/04/12 00:07:43;;;;;;;3.17;2.10;;;20.80;40.00;;;;;;5112291;27;20100;-57
2022/04/12 00:10:10;;;;;;;2.53;2.15;;;20.80;39.90;;;;;;5112682;28;20086;-57
2022/04/12 00:12:37;;;;;;;2.10;1.88;;;20.80;39.90;;;;;;5112561;28;20047;-57
2022/04/12 00:15:04;;;;;;;2.28;2.08;;;20.80;40.00;;;;;;5114696;27;20517;-57
2022/04/12 00:20:14;;;;;;;2.92;1.90;;;20.80;40.70;;;;;;5112222;27;20062;-57
2022/04/12 00:22:40;;;;;;;2.45;2.05;;;20.80;39.90;;;;;;5112037;27;20043;-57
2022/04/12 00:25:09;;;;;;;2.30;2.10;;;20.80;40.00;;;;;;5114066;28;20062;-58
2022/04/12 00:27:35;;;;;;;2.60;2.13;;;20.80;40.10;;;;;;5113557;28;20164;-57
2022/04/12 00:30:01;;;;;;;2.60;2.00;;;20.80;40.20;;;;;;5111753;27;20051;-57
2022/04/12 00:32:27;;;;;;;1.90;1.80;;;20.80;40.30;;;;;;5113393;28;20453;-57
2022/04/12 00:34:52;;;;;;;2.30;2.10;;;20.80;40.40;;;;;;5114967;28;20043;-58
2022/04/12 00:37:18;;;;;;;2.33;2.13;;;20.80;40.40;;;;;;5112604;27;20066;-58
2022/04/12 00:39:43;;;;;;;2.88;2.42;;;20.80;40.40;;;;;;5113058;28;20517;-57
2022/04/12 00:42:09;;;;;;;2.30;2.13;;;20.80;40.40;;;;;;5113821;28;20047;-58
2022/04/12 00:44:34;;;;;;;2.30;2.20;;;20.80;40.40;;;;;;5110691;28;20133;-57
2022/04/12 00:47:00;;;;;;;2.35;1.98;;;20.80;40.50;;;;;;5114098;28;20426;-59
2022/04/12 00:49:25;;;;;;;2.05;1.90;;;20.80;40.40;;;;;;5111004;27;20398;-59
2022/04/12 00:51:52;;;;;;;2.90;2.10;;;20.70;40.50;;;;;;5111010;27;20470;-58
2022/04/12 00:54:19;;;;;;;1.95;1.80;;;20.80;40.50;;;;;;5111432;28;20377;-58
2022/04/12 00:56:46;;;;;;;2.28;1.77;;;20.70;40.40;;;;;;5112050;27;20062;-58
2022/04/12 00:59:12;;;;;;;2.33;2.10;;;20.70;40.40;;;;;;5112071;28;20055;-58
2022/04/12 01:01:37;;;;;;;2.58;2.05;;;20.70;40.40;;;;;;5112960;27;20049;-58
2022/04/12 01:04:03;;;;;;;2.17;1.98;;;20.70;40.40;;;;;;5112604;27;20344;-59
2022/04/12 01:06:29;;;;;;;2.13;1.88;;;20.70;40.40;;;;;;5112099;27;20039;-58
2022/04/12 01:08:54;;;;;;;2.33;2.17;;;20.70;40.30;;;;;;5115127;27;20126;-58
2022/04/12 01:11:20;;;;;;;2.20;2.00;;;20.70;40.40;;;;;;5112347;27;20047;-57
2022/04/12 01:13:46;;;;;;;2.20;2.00;;;20.70;40.30;;;;;;5114279;28;20386;-58
2022/04/12 01:16:11;;;;;;;2.22;2.00;;;20.70;40.30;;;;;;5113124;27;20089;-58
2022/04/12 01:18:38;;;;;;;2.10;2.00;;;20.70;40.30;;;;;;5112454;27;20501;-57
2022/04/12 01:21:04;;;;;;;2.58;2.15;;;20.70;40.30;;;;;;5112240;28;20145;-58
2022/04/12 01:23:41;;;;;;;2.50;2.10;;;20.70;40.20;;;;;;5111233;27;20040;-58
2022/04/12 01:26:07;;;;;;;2.08;1.88;;;20.70;41.00;;;;;;5112347;27;20047;-58
2022/04/12 01:28:33;;;;;;;1.83;1.70;;;20.60;41.00;;;;;;5114586;27;20051;-58
2022/04/12 01:30:59;;;;;;;2.30;2.10;;;20.60;40.20;;;;;;5116968;27;20047;-58
2022/04/12 01:33:24;;;;;;;2.10;1.90;;;20.60;40.20;;;;;;5114134;27;20070;-58
2022/04/12 01:35:50;;;;;;;2.72;2.05;;;20.60;40.20;;;;;;5118782;27;20428;-58
2022/04/12 01:38:16;;;;;;;2.38;2.17;;;20.60;40.20;;;;;;5118215;27;20069;-58
2022/04/12 01:40:42;;;;;;;2.45;2.25;;;20.60;40.10;;;;;;5112484;27;20047;-57
2022/04/12 01:43:07;;;;;;;2.47;1.90;;;20.60;40.20;;;;;;5115534;27;20054;-58
2022/04/12 01:45:33;;;;;;;2.00;1.80;;;20.60;40.10;;;;;;5114031;27;20830;-57
2022/04/12 01:47:58;;;;;;;2.20;2.00;;;20.60;40.10;;;;;;5115233;27;20106;-58
2022/04/12 01:50:24;;;;;;;2.30;2.00;;;20.60;40.00;;;;;;5117796;27;20040;-58
2022/04/12 01:52:50;;;;;;;1.80;1.70;;;20.60;40.00;;;;;;5114596;27;20055;-57
2022/04/12 01:55:16;;;;;;;2.03;1.70;;;20.60;40.00;;;;;;5117348;27;20051;-58
2022/04/12 01:57:42;;;;;;;2.28;2.08;;;20.50;40.00;;;;;;5113919;27;20039;-58
2022/04/12 02:00:08;;;;;;;2.47;2.00;;;20.60;40.00;;;;;;5115094;27;20066;-59
2022/04/12 02:02:34;;;;;;;2.60;2.00;;;20.50;39.90;;;;;;5109379;27;21088;-59
2022/04/12 02:04:59;;;;;;;3.17;1.92;;;20.60;40.00;;;;;;5112853;27;20047;-58
2022/04/12 02:07:26;;;;;;;2.40;2.20;;;20.50;39.90;;;;;;5113957;27;20076;-59
2022/04/12 02:09:51;;;;;;;2.08;1.98;;;20.50;39.80;;;;;;5112241;27;20617;-59
2022/04/12 02:12:18;;;;;;;2.13;1.92;;;20.50;39.90;;;;;;5111555;27;20059;-59
2022/04/12 02:14:43;;;;;;;1.75;1.65;;;20.50;39.90;;;;;;5112108;27;20091;-58
2022/04/12 02:17:09;;;;;;;2.72;1.92;;;20.50;39.80;;;;;;5112959;27;20147;-58
2022/04/12 02:19:35;;;;;;;2.08;1.88;;;20.60;40.60;;;;;;5112819;27;20053;-58
2022/04/12 02:22:00;;;;;;;2.55;2.00;;;20.50;39.70;;;;;;5110193;27;20050;-58
2022/04/12 02:24:26;;;;;;;2.00;1.80;;;20.50;39.70;;;;;;5114728;27;20051;-58
2022/04/12 02:26:51;;;;;;;1.85;1.75;;;20.50;39.60;;;;;;5115312;27;20401;-59
2022/04/12 02:29:17;;;;;;;2.70;1.95;;;20.50;39.60;;;;;;5112367;27;20508;-58
2022/04/12 02:31:42;;;;;;;2.85;1.90;;;20.50;39.60;;;;;;5114534;27;20054;-58
2022/04/12 02:34:09;;;;;;;2.15;2.00;;;20.50;40.40;;;;;;5116119;27;20044;-58
2022/04/12 02:36:35;;;;;;;1.95;1.73;;;20.50;39.60;;;;;;5114212;27;20047;-58
2022/04/12 02:39:00;;;;;;;2.08;1.85;;;20.50;39.70;;;;;;5115034;27;20054;-58
2022/04/12 02:41:26;;;;;;;2.55;1.80;;;20.50;39.70;;;;;;5116143;27;20165;-58
2022/04/12 02:43:51;;;;;;;2.03;1.90;;;20.50;39.70;;;;;;5115065;27;20051;-59
2022/04/12 02:46:17;;;;;;;1.80;1.70;;;20.50;39.70;;;;;;5117275;27;20130;-58
2022/04/12 02:48:43;;;;;;;1.88;1.77;;;20.40;39.60;;;;;;5114106;27;20159;-58
2022/04/12 02:51:08;;;;;;;2.05;1.90;;;20.40;39.50;;;;;;5112447;27;20069;-58
2022/04/12 02:53:34;;;;;;;2.55;1.77;;;20.40;39.60;;;;;;5114802;27;20051;-59
2022/04/12 02:55:59;;;;;;;2.72;1.80;;;20.40;39.50;;;;;;5114862;27;20054;-58
2022/04/12 02:58:25;;;;;;;1.95;1.85;;;20.40;39.60;;;;;;5115159;27;20047;-58
2022/04/12 03:00:50;;;;;;;1.83;1.73;;;20.40;39.60;;;;;;5115677;27;20054;-58
2022/04/12 03:03:16;;;;;;;2.63;1.80;;;20.40;39.50;;;;;;5113869;27;20041;-58
2022/04/12 03:05:41;;;;;;;1.73;1.60;;;20.40;39.50;;;;;;5113788;27;20394;-59
2022/04/12 03:08:07;;;;;;;2.13;1.92;;;20.40;39.50;;;;;;5115482;27;20096;-58
2022/04/12 03:10:33;;;;;;;1.83;1.70;;;20.40;39.40;;;;;;5111505;27;20120;-58
2022/04/12 03:12:59;;;;;;;1.88;1.67;;;20.40;39.40;;;;;;5113947;27;20047;-58
2022/04/12 03:15:24;;;;;;;1.90;1.80;;;20.40;39.50;;;;;;5112598;27;20055;-59
2022/04/12 03:17:50;;;;;;;1.75;1.60;;;20.40;39.40;;;;;;5112860;27;20048;-57
2022/04/12 03:20:16;;;;;;;1.98;1.63;;;20.40;39.40;;;;;;5113884;27;20931;-58
2022/04/12 03:22:42;;;;;;;1.60;1.50;;;20.40;39.40;;;;;;5114083;27;20505;-58
2022/04/12 03:25:11;;;;;;;2.22;1.75;;;20.40;39.40;;;;;;5114717;27;20054;-58
2022/04/12 03:27:37;;;;;;;2.05;1.70;;;20.40;39.50;;;;;;5114498;27;20035;-58
2022/04/12 03:30:04;;;;;;;2.60;1.80;;;20.40;39.40;;;;;;5115413;27;20691;-59
2022/04/12 03:32:30;;;;;;;1.65;1.55;;;20.40;39.30;;;;;;5115259;27;20027;-58
2022/04/12 03:34:55;;;;;;;1.60;1.45;;;20.40;39.30;;;;;;5112361;27;20414;-58
2022/04/12 03:37:21;;;;;;;1.85;1.60;;;20.40;39.30;;;;;;5113685;27;20047;-58
2022/04/12 03:39:48;;;;;;;2.05;1.90;;;20.40;39.30;;;;;;5112843;27;20474;-58
2022/04/12 03:42:14;;;;;;;1.80;1.52;;;20.30;39.20;;;;;;5114663;27;20062;-58
2022/04/12 03:44:40;;;;;;;1.73;1.63;;;20.30;39.20;;;;;;5115176;27;20760;-58
2022/04/12 03:47:07;;;;;;;1.77;1.60;;;20.30;39.30;;;;;;5113270;27;20075;-58
2022/04/12 03:49:32;;;;;;;1.75;1.65;;;20.40;39.30;;;;;;5113012;27;20105;-58
2022/04/12 03:51:58;;;;;;;2.00;1.60;;;20.30;39.20;;;;;;5114081;27;20047;-58
2022/04/12 03:54:24;;;;;;;1.90;1.80;;;20.30;39.20;;;;;;5113152;27;20040;-58
2022/04/12 03:56:50;;;;;;;1.90;1.70;;;20.30;39.20;;;;;;5110688;27;20122;-57
2022/04/12 03:59:15;;;;;;;1.92;1.70;;;20.30;39.20;;;;;;5112828;27;20065;-58
2022/04/12 04:01:41;;;;;;;2.47;1.67;;;20.30;39.20;;;;;;5106951;27;20042;-58
2022/04/12 04:04:07;;;;;;;2.08;1.88;;;20.30;39.20;;;;;;5109470;27;20039;-58
2022/04/12 04:06:33;;;;;;;1.98;1.80;;;20.30;39.20;;;;;;5111996;27;20047;-58
2022/04/12 04:08:58;;;;;;;1.95;1.80;;;20.30;39.20;;;;;;5113172;27;20047;-58
2022/04/12 04:11:24;;;;;;;2.13;1.92;;;20.30;39.20;;;;;;5113412;27;20047;-59
2022/04/12 04:13:49;;;;;;;1.92;1.73;;;20.30;39.20;;;;;;5113769;27;20050;-58
2022/04/12 04:16:15;;;;;;;1.88;1.75;;;20.30;39.20;;;;;;5114084;27;20051;-58
2022/04/12 04:18:40;;;;;;;2.03;1.73;;;20.30;39.20;;;;;;5113081;27;20046;-57
2022/04/12 04:21:06;;;;;;;1.92;1.55;;;20.30;39.10;;;;;;5109950;27;20065;-58
2022/04/12 04:23:31;;;;;;;2.15;1.95;;;20.30;39.10;;;;;;5114865;27;20043;-58
2022/04/12 04:25:57;;;;;;;2.58;1.90;;;20.30;39.10;;;;;;5112251;27;20686;-58
2022/04/12 04:28:22;;;;;;;1.70;1.60;;;20.20;39.00;;;;;;5113762;27;20164;-58
2022/04/12 04:30:49;;;;;;;1.90;1.67;;;20.20;39.00;;;;;;5111375;27;20048;-58
2022/04/12 04:33:19;;;;;;;2.00;1.80;;;20.20;39.10;;;;;;5114679;28;20071;-59
2022/04/12 04:35:46;;;;;;;1.70;1.60;;;20.20;39.00;;;;;;5111676;28;20058;-59
2022/04/12 04:38:12;;;;;;;1.60;1.50;;;20.20;39.00;;;;;;5113317;27;20658;-58
2022/04/12 04:40:37;;;;;;;1.80;1.70;;;20.20;39.00;;;;;;5114278;28;20150;-59
2022/04/12 04:43:03;;;;;;;2.30;1.90;;;20.20;39.00;;;;;;5112759;27;20031;-58
2022/04/12 04:45:29;;;;;;;1.90;1.80;;;20.20;39.00;;;;;;5114698;28;20124;-57
2022/04/12 04:47:57;;;;;;;1.85;1.75;;;20.20;39.00;;;;;;5114795;28;20054;-57
2022/04/12 04:50:25;;;;;;;1.77;1.67;;;20.20;39.00;;;;;;5113122;28;20701;-57
2022/04/12 04:52:51;;;;;;;2.05;1.80;;;20.20;39.00;;;;;;5115012;27;20126;-57
2022/04/12 04:55:17;;;;;;;1.60;1.50;;;20.20;39.00;;;;;;5111177;27;20039;-57
2022/04/12 04:57:45;;;;;;;2.10;1.90;;;20.20;39.10;;;;;;5112669;27;20039;-57
2022/04/12 05:00:16;;;;;;;1.73;1.63;;;20.20;39.00;;;;;;5114752;28;20078;-58
2022/04/12 05:02:45;;;;;;;;;;;20.20;39.00;;;;;;5118065;27;20184;-57
2022/04/12 05:05:12;;;;;;;3.33;1.92;;;20.20;38.90;;;;;;5116018;27;19927;-57
2022/04/12 05:07:38;;;;;;;2.20;1.90;;;20.10;39.10;;;;;;5116068;27;20043;-57
2022/04/12 05:10:05;;;;;;;2.63;1.85;;;20.10;39.00;;;;;;5115113;27;20134;-56
2022/04/12 05:12:30;;;;;;;1.90;1.58;;;20.20;39.10;;;;;;5114322;27;20091;-57
2022/04/12 05:14:56;;;;;;;1.95;1.80;;;20.20;39.00;;;;;;5117513;27;20117;-57
2022/04/12 05:17:28;;;;;;;1.60;1.50;;;20.20;39.00;;;;;;5116823;27;20104;-57
2022/04/12 05:19:56;;;;;;;1.85;1.55;;;20.20;39.00;;;;;;5117147;27;20490;-57
2022/04/12 05:22:23;;;;;;;2.47;1.80;;;20.20;39.00;;;;;;5116642;27;20050;-57
2022/04/12 05:24:49;;;;;;;1.55;1.45;;;20.20;39.00;;;;;;5116682;27;20043;-58
2022/04/12 05:27:15;;;;;;;1.80;1.42;;;20.20;39.00;;;;;;5118011;27;20198;-58
2022/04/12 05:29:41;;;;;;;1.80;1.63;;;20.20;39.00;;;;;;5115791;27;20054;-57
2022/04/12 05:32:09;;;;;;;1.75;1.65;;;20.20;39.00;;;;;;5116856;27;20043;-58
2022/04/12 05:34:38;;;;;;;2.53;1.50;;;20.20;39.00;;;;;;5116403;27;20059;-57
2022/04/12 05:37:04;;;;;;;1.92;1.65;;;20.20;39.00;;;;;;5116447;27;20217;-58
2022/04/12 05:39:29;;;;;;;2.05;1.83;;;20.20;39.10;;;;;;5114777;27;20494;-58
2022/04/12 05:42:00;;;;;;;4.47;1.60;;;20.20;39.20;;;;;;5115359;27;20036;-57
2022/04/12 05:44:26;;;;;;;2.38;2.17;;;20.20;39.40;;;;;;5116513;27;20047;-58
2022/04/12 05:46:52;;;;;;;2.28;1.50;;;20.20;39.50;;;;;;5117165;27;20430;-58
2022/04/12 05:49:17;;;;;;;2.15;1.70;;;20.20;39.60;;;;;;5114391;27;20159;-57
2022/04/12 05:51:43;;;;;;;2.17;1.70;;;20.20;39.80;;;;;;5115945;27;20043;-58
2022/04/12 05:54:08;;;;;;;1.70;1.42;;;20.20;39.80;;;;;;5099507;27;20048;-57
2022/04/12 05:56:33;;;;;;;2.72;1.50;;;20.20;39.80;;;;;;5113843;27;20426;-58
2022/04/12 05:58:59;;;;;;;3.15;2.40;;;20.20;39.90;;;;;;5115103;27;20051;-57
2022/04/12 06:01:24;;;;;;;1.98;1.40;;;20.20;39.70;;;;;;5117349;27;20135;-57
2022/04/12 06:03:50;;;;;;;1.92;1.80;;;20.20;39.70;;;;;;5113991;27;20046;-57
2022/04/12 06:06:16;;;;;;;4.40;1.95;;;20.30;39.80;;;;;;5112710;27;20047;-57
2022/04/12 06:08:41;;;;;;;2.00;1.80;;;20.20;39.80;;;;;;5116062;27;20684;-57
2022/04/12 06:11:07;;;;;;;1.67;1.58;;;20.30;40.00;;;;;;5114019;27;20047;-58
2022/04/12 06:13:33;;;;;;;2.20;1.65;;;20.30;40.10;;;;;;5113478;27;20491;-57
2022/04/12 06:15:58;;;;;;;3.33;1.70;;;20.30;40.20;;;;;;5112333;27;20512;-57
2022/04/12 06:18:24;;;;;;;7.47;1.83;;;20.30;40.40;;;;;;5111596;27;20058;-57
2022/04/12 06:20:49;;;;;;;1.67;1.50;;;20.30;40.40;;;;;;5114025;27;20458;-57
2022/04/12 06:23:15;;;;;;;1.95;1.77;;;20.30;40.60;;;;;;5111812;27;20154;-58
2022/04/12 06:25:41;;;;;;;2.55;1.92;;;20.30;40.50;;;;;;5113369;27;20049;-57
2022/04/12 06:28:07;;;;;;;2.65;1.80;;;20.40;40.60;;;;;;5111724;27;20050;-58
2022/04/12 06:30:34;;;;;;;3.10;1.65;;;20.40;40.60;;;;;;5111688;27;20040;-58
2022/04/12 06:32:59;;;;;;;1.75;1.48;;;20.40;40.60;;;;;;5113330;27;20167;-57
2022/04/12 06:35:25;;;;;;;1.60;1.50;;;20.40;40.60;;;;;;5109111;27;20131;-57
2022/04/12 06:37:56;;;;;;;3.58;1.92;;;20.40;40.60;;;;;;5112172;27;20048;-57
2022/04/12 06:40:22;;;;;;;;;;;20.40;40.90;;;;;;5113258;27;20039;-57
2022/04/12 06:42:49;;;;;;;2.50;1.90;;;20.40;40.90;;;;;;5112830;27;19923;-58
2022/04/12 06:45:15;;;;;;;2.70;1.80;;;20.40;40.90;;;;;;5111043;27;20052;-57
2022/04/12 06:47:41;;;;;;;3.10;1.67;;;20.40;40.80;;;;;;5116533;27;20931;-57
2022/04/12 06:50:08;;;;;;;2.20;1.40;;;20.40;41.50;;;;;;5112235;27;20246;-57
2022/04/12 06:52:35;;;;;;;1.70;1.60;;;20.40;40.70;;;;;;5115109;27;20138;-57
2022/04/12 06:55:01;;;;;;;2.03;1.60;;;20.50;41.00;;;;;;5116700;27;20221;-57
2022/04/12 06:57:34;;;;;;;1.90;1.70;;;20.50;41.00;;;;;;5115170;27;21035;-57
2022/04/12 07:00:00;;;;;;;5.05;1.73;;;20.50;41.00;;;;;;5113969;27;20043;-57
2022/04/12 07:02:26;;;;;;;7.22;1.70;;;20.50;41.20;;;;;;5111786;27;20100;-57
2022/04/12 07:04:51;;;;;;;2.33;1.85;;;20.50;41.30;;;;;;5114113;27;20494;-58
2022/04/12 07:07:17;;;;;;;2.33;1.80;;;20.50;41.40;;;;;;5107689;27;20042;-57
2022/04/12 07:09:42;;;;;;;3.10;1.40;;;20.50;41.30;;;;;;5091240;27;20035;-58
2022/04/12 07:12:08;;;;;;;2.63;1.40;;;20.50;41.30;;;;;;5113097;27;20039;-56
2022/04/12 07:14:34;;;;;;;3.35;1.70;;;20.50;41.30;;;;;;5111118;27;20073;-57
2022/04/12 07:17:00;;;;;;;2.22;1.60;;;20.50;41.30;;;;;;5110656;27;20043;-56
2022/04/12 07:19:26;;;;;;;2.53;1.40;;;20.50;41.50;;;;;;5111732;27;20071;-57
2022/04/12 07:21:52;;;;;;;4.22;1.40;;;20.50;41.50;;;;;;5117419;27;20091;-57
2022/04/12 07:24:18;;;;;;;2.05;1.35;;;20.50;41.60;;;;;;5112307;27;20787;-58
2022/04/12 07:26:43;;;;;;;2.00;1.70;;;20.60;41.70;;;;;;5110606;27;20470;-57
2022/04/12 07:29:09;;;;;;;2.67;1.55;;;20.60;41.90;;;;;;5112397;27;20807;-57
2022/04/12 07:31:35;;;;;;;2.22;1.40;;;20.60;41.90;;;;;;5113244;27;20050;-56
2022/04/12 07:34:01;;;;;;;3.50;1.40;;;20.60;41.90;;;;;;5111408;27;20047;-57
2022/04/12 07:36:27;;;;;;;1.65;1.42;;;20.60;41.80;;;;;;5110591;27;20062;-57
2022/04/12 07:38:52;;;;;;;9.15;3.22;;;20.60;41.90;;;;;;5109338;27;20047;-57
2022/04/12 07:41:18;;;;;;;5.70;2.72;;;20.60;41.90;;;;;;5111779;27;20440;-57
2022/04/12 07:43:45;;;;;;;6.75;3.15;;;20.60;41.90;;;;;;5113415;27;20039;-57
2022/04/12 07:46:12;;;;;;;9.35;3.33;;;20.70;42.20;;;;;;5112334;27;20047;-57
2022/04/12 07:48:39;;;;;;;10.30;4.40;;;20.70;42.30;;;;;;5113477;27;20055;-56
2022/04/12 07:51:04;;;;;;;18.10;6.22;;;20.70;42.30;;;;;;5116364;27;20627;-57
2022/04/12 07:53:30;;;;;;;13.80;5.25;;;20.70;42.40;;;;;;5111961;27;20548;-54
2022/04/12 07:55:55;;;;;;;16.55;6.20;;;20.70;42.40;;;;;;5115899;27;20074;-52
2022/04/12 07:58:21;;;;;;;14.85;6.45;;;20.70;42.40;;;;;;5112979;27;20200;-56
2022/04/12 08:00:47;;;;;;;12.40;5.80;;;20.80;42.80;;;;;;5113861;27;20442;-56
2022/04/12 08:03:13;;;;;;;14.88;5.70;;;20.70;42.60;;;;;;5113698;27;20112;-57
2022/04/12 08:05:38;;;;;;;12.10;5.18;;;20.80;42.60;;;;;;5113283;27;20050;-56
2022/04/12 08:08:05;;;;;;;10.50;4.57;;;20.70;42.60;;;;;;5114897;27;20920;-56
2022/04/12 08:10:31;;;;;;;6.85;3.75;;;20.80;42.70;;;;;;5113633;27;20051;-57
2022/04/12 08:12:57;;;;;;;9.63;4.25;;;20.80;42.70;;;;;;5110323;27;20130;-58
2022/04/12 08:15:24;;;;;;;10.15;4.30;;;20.80;42.90;;;;;;5112069;27;20055;-57
2022/04/12 08:17:50;;;;;;;11.77;4.07;;;20.80;43.20;;;;;;5114357;27;20494;-57
2022/04/12 08:20:16;;;;;;;8.48;3.88;;;20.80;44.10;;;;;;5112464;27;20272;-57
2022/04/12 08:22:43;;;;;;;11.45;4.10;;;20.80;43.40;;;;;;5112358;27;20551;-57
2022/04/12 08:25:09;;;;;;;7.45;3.55;;;20.80;44.10;;;;;;5113311;27;20048;-57
2022/04/12 08:27:35;;;;;;;6.80;3.53;;;20.80;43.30;;;;;;5112626;27;20081;-56
2022/04/12 08:30:02;;;;;;;8.57;3.10;;;20.80;43.30;;;;;;5114584;28;20082;-57
2022/04/12 08:32:29;;;;;;;9.85;3.33;;;20.80;43.40;;;;;;5113170;27;20504;-57
2022/04/12 08:34:55;;;;;;;9.48;3.90;;;20.80;43.60;;;;;;5113587;27;20103;-56
2022/04/12 08:37:21;;;;;;;5.55;2.78;;;20.80;43.60;;;;;;5113538;27;20058;-56
2022/04/12 08:39:47;;;;;;;8.25;3.15;;;20.80;43.70;;;;;;5117118;27;20047;-56
2022/04/12 08:42:13;;;;;;;5.20;2.97;;;20.80;43.60;;;;;;5116034;27;20120;-57
2022/04/12 08:44:44;;;;;;;7.68;2.90;;;20.80;43.60;;;;;;5115956;27;20047;-57
2022/04/12 08:47:09;;;;;;;6.63;3.40;;;20.80;43.60;;;;;;5116119;27;20044;-57
2022/04/12 08:49:38;;;;;;;5.53;2.72;;;20.90;43.80;;;;;;5116808;27;20297;-57
2022/04/12 08:52:03;;;;;;;6.03;2.80;;;20.90;44.00;;;;;;5117629;27;20047;-57
2022/04/12 08:54:31;;;;;;;5.97;2.80;;;20.90;44.00;;;;;;5111547;27;20075;-57
2022/04/12 08:56:57;;;;;;;8.27;3.00;;;20.90;44.00;;;;;;5114280;27;20108;-57
2022/04/12 08:59:23;;;;;;;5.88;2.75;;;20.90;43.90;;;;;;5114681;27;20043;-57
2022/04/12 09:01:50;;;;;;;7.68;2.95;;;20.90;44.00;;;;;;5114926;27;20047;-57
2022/04/12 09:04:15;;;;;;;7.57;2.58;;;20.90;44.10;;;;;;5114318;27;20051;-57
2022/04/12 09:06:52;;;;;;;6.07;2.97;;;21.00;44.10;;;;;;5115240;27;20199;-57
2022/04/12 09:09:21;;;;;;;6.63;2.83;;;20.90;44.20;;;;;;5111863;27;20067;-56
2022/04/12 09:12:06;;;;;;;5.40;2.33;;;21.00;45.00;;;;;;5113311;27;20047;-57
2022/04/12 09:14:42;;;;;;;6.82;2.90;;;21.00;44.20;;;;;;5115962;27;20144;-57
2022/04/12 09:17:18;;;;;;;4.78;2.30;;;21.00;45.00;;;;;;5115354;27;20122;-57
2022/04/12 09:19:46;;;;;;;4.85;2.63;;;21.00;44.20;;;;;;5118211;27;20127;-57
2022/04/12 09:22:23;;;;;;;5.10;2.58;;;21.00;44.10;;;;;;5116466;27;20053;-57
2022/04/12 09:24:58;;;;;;;5.63;2.60;;;21.00;44.10;;;;;;5115551;27;20123;-57
2022/04/12 09:27:34;;;;;;;6.80;2.70;;;21.00;44.00;;;;;;5116720;27;20091;-56
2022/04/12 09:30:09;;;;;;;5.82;2.55;;;21.00;44.30;;;;;;5116046;27;20047;-57
2022/04/12 09:32:37;;;;;;;4.55;1.98;;;21.00;44.40;;;;;;5115944;27;20101;-57
2022/04/12 09:35:04;;;;;;;2.92;2.38;;;21.00;44.10;;;;;;5115624;27;20115;-56
2022/04/12 09:37:35;;;;;;;3.15;2.00;;;21.00;44.00;;;;;;5115270;27;20084;-56
2022/04/12 09:40:00;;;;;;;4.82;2.50;;;21.10;44.00;;;;;;5113984;27;20114;-57
2022/04/12 09:42:59;;;;;;;6.13;2.85;;;21.00;43.90;;;;;;5116840;27;20077;-57
2022/04/12 09:45:27;;;;;;;4.38;1.95;;;21.10;44.00;;;;;;5084910;27;20066;-57
2022/04/12 09:47:55;;;;;;;3.95;2.22;;;21.10;44.00;;;;;;5113384;27;20443;-57
2022/04/12 09:50:26;;;;;;;4.00;1.90;;;21.10;44.00;;;;;;5115956;27;20066;-57
2022/04/12 09:52:58;;;;;;;4.50;2.10;;;21.10;43.90;;;;;;5115676;27;20043;-57
2022/04/12 09:55:36;;;;;;;4.30;2.28;;;21.10;43.90;;;;;;5114391;27;20074;-57
2022/04/12 09:58:03;;;;;;;4.07;2.08;;;21.10;43.90;;;;;;5113533;27;20056;-57
2022/04/12 10:00:30;;;;;;;4.57;2.58;;;21.10;43.90;;;;;;5116681;27;20051;-57
2022/04/12 10:03:04;;;;;;;2.70;2.03;;;21.10;43.70;;;;;;5113498;27;20044;-56
2022/04/12 10:05:31;;;;;;;2.47;2.00;;;21.10;43.60;;;;;;5115214;27;20043;-57
2022/04/12 10:07:58;;;;;;;3.05;1.88;;;21.10;43.60;;;;;;5114666;27;20096;-57
2022/04/12 10:10:26;;;;;;;2.50;2.00;;;21.10;43.50;;;;;;5114577;27;20039;-57
2022/04/12 10:12:57;;;;;;;2.30;1.67;;;21.10;43.60;;;;;;5114801;27;20051;-57
2022/04/12 10:15:25;;;;;;;3.05;1.90;;;21.10;43.70;;;;;;5114617;27;20043;-56
2022/04/12 10:17:52;;;;;;;3.70;2.00;;;21.10;43.60;;;;;;5116755;27;20060;-57
2022/04/12 10:20:18;;;;;;;2.05;1.75;;;21.10;43.70;;;;;;5116517;27;20047;-56
2022/04/12 10:22:44;;;;;;;4.65;2.08;;;21.10;43.80;;;;;;5116481;27;20035;-57
2022/04/12 10:25:11;;;;;;;4.25;2.45;;;21.10;43.90;;;;;;5114684;27;20059;-56
2022/04/12 10:27:37;;;;;;;3.35;2.30;;;21.10;44.00;;;;;;5119059;27;20047;-57
2022/04/12 10:30:15;;;;;;;5.40;2.50;;;21.10;44.00;;;;;;5115664;27;20089;-57
2022/04/12 10:33:07;;;;;;;3.47;2.20;;;21.10;45.00;;;;;;5113497;27;20043;-57
2022/04/12 10:35:42;;;;;;;3.55;2.05;;;21.10;45.40;;;;;;5115089;27;20116;-56
2022/04/12 10:38:08;;;;;;;4.00;2.30;;;21.10;45.40;;;;;;5115057;27;20039;-56
2022/04/12 10:40:35;;;;;;;4.90;1.88;;;21.10;45.60;;;;;;5115740;27;20048;-57
2022/04/12 10:43:02;;;;;;;3.70;1.83;;;21.20;45.70;;;;;;5114655;27;20084;-56
2022/04/12 10:45:33;;;;;;;3.20;2.28;;;21.20;45.70;;;;;;5114735;27;20043;-56
2022/04/12 10:48:02;;;;;;;2.75;2.08;;;21.20;45.70;;;;;;5114631;27;20047;-56
2022/04/12 10:50:40;;;;;;;5.38;2.58;;;21.20;45.70;;;;;;5114864;27;20050;-57
2022/04/12 10:53:05;;;;;;;4.93;1.92;;;21.20;45.80;;;;;;5115138;27;20186;-56
2022/04/12 10:55:41;;;;;;;2.35;2.08;;;21.20;45.80;;;;;;5116064;27;20059;-57
2022/04/12 10:58:27;;;;;;;3.13;2.08;;;21.20;45.70;;;;;;5113698;27;20142;-56
2022/04/12 11:00:54;;;;;;;3.20;1.88;;;21.20;45.90;;;;;;5113848;27;20179;-56
2022/04/12 11:03:40;;;;;;;3.95;1.73;;;21.20;45.80;;;;;;5111028;27;20640;-57
2022/04/12 11:06:14;;;;;;;2.25;1.75;;;21.20;46.50;;;;;;5114473;27;20047;-56
2022/04/12 11:08:47;;;;;;;5.10;1.77;;;21.20;45.80;;;;;;5117162;27;20088;-56
2022/04/12 11:11:21;;;;;;;3.25;2.13;;;21.20;45.90;;;;;;5113757;27;20039;-56
2022/04/12 11:13:49;;;;;;;3.30;2.17;;;21.20;45.90;;;;;;5113336;27;20559;-56
2022/04/12 11:16:24;;;;;;;2.20;1.70;;;21.20;45.80;;;;;;5113491;27;20061;-57
2022/04/12 11:18:55;;;;;;;2.85;1.73;;;21.20;45.80;;;;;;5112691;27;20055;-57
2022/04/12 11:21:23;;;;;;;3.67;2.00;;;21.20;45.70;;;;;;5112186;27;20470;-57
2022/04/12 11:23:59;;;;;;;3.00;1.88;;;21.20;45.60;;;;;;5114850;27;20097;-57
2022/04/12 11:26:44;;;;;;;3.65;1.85;;;21.30;45.60;;;;;;5114554;27;20051;-57
2022/04/12 11:29:16;;;;;;;2.35;1.50;;;21.20;45.60;;;;;;5114910;27;20138;-57
2022/04/12 11:31:42;;;;;;;5.22;1.85;;;21.20;45.60;;;;;;5111480;27;20039;-57
2022/04/12 11:34:08;;;;;;;2.25;1.77;;;21.20;45.60;;;;;;5106567;27;20051;-57
2022/04/12 11:36:36;;;;;;;3.30;1.60;;;21.20;45.70;;;;;;5111623;27;20118;-58
2022/04/12 11:39:02;;;;;;;4.43;1.80;;;21.30;45.70;;;;;;5110667;27;20046;-57
2022/04/12 11:41:29;;;;;;;5.30;2.20;;;21.30;45.90;;;;;;5113324;27;20079;-56
2022/04/12 11:43:59;;;;;;;2.38;1.92;;;21.30;45.60;;;;;;5111929;27;20076;-57
2022/04/12 11:46:24;;;;;;;3.35;1.90;;;21.30;45.50;;;;;;5111880;27;20829;-57
2022/04/12 11:48:50;;;;;;;2.15;1.60;;;21.20;45.50;;;;;;5113021;27;20049;-57
2022/04/12 11:51:17;;;;;;;4.50;1.85;;;21.30;45.50;;;;;;5113414;27;20607;-57
2022/04/12 11:53:48;;;;;;;8.90;1.98;;;21.30;45.60;;;;;;5112070;27;20042;-57
2022/04/12 11:56:14;;;;;;;2.63;1.80;;;21.30;45.60;;;;;;5115798;27;20050;-58
2022/04/12 11:58:40;;;;;;;2.13;1.70;;;21.30;45.60;;;;;;5114685;27;20563;-57
2022/04/12 12:01:05;;;;;;;5.68;1.45;;;21.30;45.50;;;;;;5111857;27;20142;-57
2022/04/12 12:03:31;;;;;;;3.05;1.50;;;21.30;45.40;;;;;;5110106;27;20045;-57
2022/04/12 12:05:57;;;;;;;2.78;1.63;;;21.30;45.40;;;;;;5113924;27;20100;-56
2022/04/12 12:08:23;;;;;;;3.35;1.83;;;21.30;45.40;;;;;;5113605;27;20043;-57
2022/04/12 12:10:53;;;;;;;3.38;1.63;;;21.30;45.40;;;;;;5111240;27;20135;-56
2022/04/12 12:13:23;;;;;;;2.55;1.73;;;21.30;45.40;;;;;;5112201;27;20059;-56
2022/04/12 12:15:49;;;;;;;2.55;1.98;;;21.30;45.30;;;;;;5110630;27;20483;-57
2022/04/12 12:18:18;;;;;;;2.33;1.70;;;21.30;45.30;;;;;;5109928;28;20139;-57
2022/04/12 12:20:45;;;;;;;2.67;1.45;;;21.40;45.30;;;;;;5111442;28;20441;-57
2022/04/12 12:23:11;;;;;;;2.40;1.75;;;21.30;45.20;;;;;;5109607;28;20118;-57
2022/04/12 12:25:46;;;;;;;1.90;1.40;;;21.30;45.20;;;;;;5113220;28;20043;-57
2022/04/12 12:28:15;;;;;;;3.53;1.48;;;21.30;45.10;;;;;;5112441;28;20044;-57
2022/04/12 12:30:45;;;;;;;1.88;1.42;;;21.40;45.20;;;;;;5112413;28;20122;-56
2022/04/12 12:33:11;;;;;;;2.40;1.58;;;21.40;45.20;;;;;;5111474;27;20067;-57
2022/04/12 12:35:41;;;;;;;2.38;1.45;;;21.40;45.20;;;;;;5108629;27;20452;-58
2022/04/12 12:38:27;;;;;;;4.18;1.60;;;21.40;45.30;;;;;;5109669;28;20067;-57
2022/04/12 12:40:57;;;;;;;2.80;1.55;;;21.40;45.40;;;;;;5112120;27;20613;-57
2022/04/12 12:43:24;;;;;;;2.42;1.30;;;21.40;45.50;;;;;;5111757;27;20126;-57
2022/04/12 12:45:50;;;;;;;2.17;1.42;;;21.40;45.40;;;;;;5114889;27;20039;-57
2022/04/12 12:48:16;;;;;;;1.70;1.60;;;21.40;45.40;;;;;;5112447;27;20035;-56
2022/04/12 12:50:43;;;;;;;1.70;1.58;;;21.40;45.40;;;;;;5112675;27;20490;-57